Latest Weather Observations for Camooweal

IDQ60801

Issued at 1:35 pm EST Friday 19 September 2014 (issued every 30 minutes, with the page automatically refreshed every 10 minutes)

About weather observations | Map of weather stations | Latest weather observations for QLD | Other Formats
Station Details ID: 037010 Name: CAMOOWEAL TOWNSHIP Lat: -19.92 Lon: 138.12 Height: 231.2 m
Data from the previous 72 hours. | See also: Recent months at Camooweal
Date/Time
EST
Temp
°C
App
Temp
°C
Dew
Point
Rel
Hum
%
Delta-T
°C
Wind Press
QNH
hPa
Press
MSL
hPa
Rain
since 9 am
mm
Dir
 
Spd
km/h
Gust
km/h
Spd
kts
Gust
kts
19/01:30pm 33.7 29.5 -0.8 11 16.8 ESE 11 17 6 9 1016.3 1015.2 0.0
19/01:00pm 33.0 29.1 -1.4 11 16.5 N 9 15 5 8 1016.8 1015.7 0.0
19/12:30pm 32.6 29.1 -1.7 11 16.4 E 7 13 4 7 1017.3 1016.3 0.0
19/12:00pm 31.9 26.9 -1.0 12 15.8 ESE 15 24 8 13 1017.9 1016.9 0.0
19/11:30am 32.0 27.0 -0.9 12 15.9 E 15 22 8 12 1018.6 1017.6 0.0
19/11:00am 31.4 25.8 -2.6 11 15.8 E 17 24 9 13 1019.0 1018.0 0.0
19/10:30am 30.2 24.1 -3.5 11 15.3 E 19 26 10 14 1019.5 1018.5 0.0
19/10:00am 29.3 23.0 -4.2 11 14.9 E 20 26 11 14 1019.8 1018.7 0.0
19/09:30am 28.2 21.8 -5.0 11 14.5 E 20 28 11 15 1019.8 1018.7 0.0
19/09:00am 27.3 22.3 -4.6 12 13.9 E 13 22 7 12 1020.0 1018.9 0.0
19/08:30am 24.6 19.0 -2.9 16 12.1 E 17 20 9 11 1019.5 1018.5 0.0
19/08:00am 22.4 18.9 -1.6 20 10.6 E 7 11 4 6 1018.9 1017.9 0.0
19/07:30am 19.6 16.3 -0.9 25 9.0 NE 6 9 3 5 1018.3 1017.3 0.0
19/07:00am 17.7 15.7 -0.1 30 7.8 CALM 0 6 0 3 1018.1 1017.1 0.0
19/06:30am 18.4 15.1 -1.4 26 8.5 ENE 6 7 3 4 1017.8 1016.8 0.0
19/06:00am 19.5 14.9 -1.0 25 8.9 ENE 13 15 7 8 1017.4 1016.4 0.0
19/05:30am 20.0 15.8 -1.2 24 9.3 ENE 11 15 6 8 1017.1 1016.0 0.0
19/05:00am 21.1 16.0 -2.0 21 10.0 E 15 20 8 11 1016.9 1015.8 0.0
19/04:30am 21.4 15.9 -1.8 21 10.1 E 17 22 9 12 1016.9 1015.8 0.0
19/04:00am 19.6 15.0 -0.9 25 9.0 E 13 17 7 9 1017.0 1015.9 0.0
19/03:30am 18.2 14.4 -1.1 27 8.3 E 9 11 5 6 1017.1 1016.0 0.0
19/03:00am 17.8 14.5 -1.4 27 8.2 SE 6 7 3 4 1017.2 1016.1 0.0
19/02:30am 19.5 16.2 -1.0 25 8.9 E 6 9 3 5 1017.5 1016.5 0.0
19/02:00am 20.3 16.6 -0.3 25 9.2 E 9 13 5 7 1017.4 1016.4 0.0
19/01:30am 20.8 17.0 -0.5 24 9.5 ESE 9 11 5 6 1017.6 1016.6 0.0
19/01:00am 22.1 18.2 -1.2 21 10.3 ESE 9 15 5 8 1017.7 1016.7 0.0
19/12:30am 23.4 18.6 -0.1 21 10.8 SE 15 20 8 11 1018.1 1017.1 0.0
19/12:00am 23.8 18.5 -0.5 20 11.1 SSE 17 20 9 11 1018.2 1017.2 0.0
 
Date/Time
EST
Temp
°C
App
Temp
°C
Dew
Point
Rel
Hum
%
Delta-T
°C
Wind Press
QNH
hPa
Press
MSL
hPa
Rain
since 9 am
mm
Dir
 
Spd
km/h
Gust
km/h
Spd
kts
Gust
kts
18/11:30pm 24.9 19.7 0.4 20 11.5 SE 17 22 9 12 1018.4 1017.4 0.0
18/11:00pm 24.3 19.8 -0.1 20 11.2 SE 13 15 7 8 1018.4 1017.4 0.0
18/10:30pm 25.1 20.7 0.6 20 11.5 SSE 13 17 7 9 1018.2 1017.2 0.0
18/10:00pm 25.6 21.2 0.3 19 11.9 SSE 13 17 7 9 1018.0 1017.0 0.0
18/09:30pm 25.3 21.2 0.0 19 11.8 SSE 11 17 6 9 1017.9 1016.9 0.0
18/09:00pm 25.2 21.1 0.0 19 11.7 SSE 11 13 6 7 1017.5 1016.5 0.0
18/08:30pm 26.1 22.0 0.0 18 12.2 SSE 11 13 6 7 1017.2 1016.1 0.0
18/08:00pm 26.6 22.5 -0.4 17 12.6 SSE 11 11 6 6 1016.8 1015.7 0.0
18/07:30pm 28.1 23.9 -0.9 15 13.6 SSE 11 13 6 7 1016.3 1015.2 0.0
18/07:00pm 29.6 25.0 -0.7 14 14.4 SSE 13 15 7 8 1015.9 1014.8 0.0
18/06:30pm 31.3 26.4 -0.4 13 15.3 SSE 15 20 8 11 1015.6 1014.5 0.0
18/06:00pm 32.3 26.6 -0.7 12 16.0 SSE 19 24 10 13 1015.2 1014.1 0.0
18/05:30pm 32.8 27.2 -0.3 12 16.2 SE 19 24 10 13 1014.8 1013.8 0.0
18/05:00pm 33.4 27.6 0.1 12 16.5 SSE 20 30 11 16 1014.8 1013.8 0.0
18/04:30pm 33.7 27.8 -0.8 11 16.8 SSE 20 28 11 15 1014.8 1013.8 0.0
18/04:00pm 33.6 28.1 0.3 12 16.5 SE 19 28 10 15 1014.8 1013.8 0.0
18/03:30pm 33.5 27.6 -1.0 11 16.8 SE 20 35 11 19 1015.0 1014.0 0.0
18/03:00pm 33.8 29.6 -0.7 11 16.9 ESE 11 15 6 8 1015.3 1014.2 0.0
18/02:30pm 32.6 28.8 -0.5 12 16.1 NNE 9 15 5 8 1015.7 1014.6 0.0
18/02:00pm 34.5 28.7 -0.2 11 17.2 SE 20 30 11 16 1016.2 1015.1 0.0
18/01:30pm 33.0 28.1 -0.2 12 16.3 ESE 15 26 8 14 1016.8 1015.7 0.0
18/01:00pm 32.8 27.9 -0.3 12 16.2 E 15 24 8 13 1017.3 1016.3 0.0
18/12:30pm 32.6 28.5 -0.5 12 16.1 SSE 11 20 6 11 1017.9 1016.9 0.0
18/12:00pm 32.8 28.3 -0.3 12 16.2 E 13 24 7 13 1018.4 1017.4 0.0
18/11:30am 32.1 26.5 0.2 13 15.7 E 19 32 10 17 1018.9 1017.9 0.0
18/11:00am 30.8 25.0 0.2 14 14.9 E 20 32 11 17 1019.3 1018.3 0.0
18/10:30am 29.9 24.2 0.5 15 14.3 E 20 28 11 15 1019.6 1018.6 0.0
18/10:00am 28.7 23.1 1.3 17 13.4 ESE 20 28 11 15 1019.9 1018.8 0.0
18/09:30am 27.5 21.1 1.1 18 12.8 E 24 30 13 16 1019.9 1018.8 0.0
18/09:00am 25.7 19.4 1.8 21 11.5 E 24 30 13 16 1019.9 1018.8 0.0
18/08:30am 23.4 17.4 1.1 23 10.5 ESE 22 35 12 19 1019.8 1018.7 0.0
18/08:00am 21.6 15.8 0.2 24 9.7 ESE 20 30 11 16 1019.8 1018.7 0.0
18/07:30am 16.8 12.9 -1.8 28 7.8 SSE 9 11 5 6 1019.8 1018.7 0.0
18/07:00am 16.2 12.6 -1.8 29 7.5 SSE 7 9 4 5 1019.2 1018.2 0.0
18/06:30am 15.8 12.3 -1.7 30 7.3 SSE 7 9 4 5 1019.1 1018.1 0.0
18/06:00am 16.9 12.9 -2.2 27 7.9 ESE 9 13 5 7 1018.9 1017.9 0.0
18/05:30am 16.1 12.7 -1.9 29 7.5 SSE 6 7 3 4 1018.4 1017.4 0.0
18/05:00am 15.5 11.9 -2.0 30 7.2 S 7 9 4 5 1018.2 1017.2 0.0
18/04:30am 17.9 15.4 -1.3 27 8.2 S 2 7 1 4 1018.0 1017.0 0.0
18/04:00am 17.9 13.9 -2.4 25 8.5 SE 9 11 5 6 1017.9 1016.9 0.0
18/03:30am 18.9 14.9 -2.1 24 8.9 ESE 9 13 5 7 1018.0 1017.0 0.0
18/03:00am 20.1 15.4 -1.7 23 9.4 SE 13 15 7 8 1018.1 1017.1 0.0
18/02:30am 20.5 15.8 -1.9 22 9.7 SSE 13 17 7 9 1018.1 1017.1 0.0
18/02:00am 20.8 16.1 -1.7 22 9.8 SSE 13 17 7 9 1018.1 1017.1 0.0
18/01:30am 21.2 16.5 -2.0 21 10.1 SSE 13 17 7 9 1018.3 1017.3 0.0
18/01:00am 21.3 16.5 -2.5 20 10.2 SSE 13 15 7 8 1018.3 1017.3 0.0
18/12:30am 22.0 17.2 -2.7 19 10.7 SE 13 17 7 9 1018.3 1017.3 0.0
18/12:00am 23.2 18.0 -2.4 18 11.2 SSE 15 20 8 11 1018.2 1017.2 0.0
 
Date/Time
EST
Temp
°C
App
Temp
°C
Dew
Point
Rel
Hum
%
Delta-T
°C
Wind Press
QNH
hPa
Press
MSL
hPa
Rain
since 9 am
mm
Dir
 
Spd
km/h
Gust
km/h
Spd
kts
Gust
kts
17/11:30pm 23.8 18.6 -2.7 17 11.6 S 15 17 8 9 1018.3 1017.3 0.0
17/11:00pm 24.9 19.7 -2.6 16 12.2 SSE 15 20 8 11 1018.1 1017.1 0.0
17/10:30pm 25.7 20.1 -2.8 15 12.7 SSE 17 24 9 13 1018.0 1017.0 0.0
17/10:00pm 26.4 20.8 -3.2 14 13.1 SSE 17 20 9 11 1017.8 1016.8 0.0
17/09:30pm 27.1 21.5 -2.7 14 13.4 SSE 17 20 9 11 1017.6 1016.6 0.0
17/09:00pm 27.6 22.0 -3.3 13 13.8 SSE 17 20 9 11 1017.2 1016.1 0.0
17/08:30pm 28.1 22.5 -2.9 13 14.0 S 17 22 9 12 1016.7 1015.6 0.0
17/08:00pm 29.0 23.4 -3.2 12 14.6 S 17 20 9 11 1016.3 1015.2 0.0
17/07:30pm 29.9 24.3 -2.6 12 15.0 S 17 22 9 12 1015.8 1014.7 0.0
17/07:00pm 30.8 24.6 -3.0 11 15.6 S 20 28 11 15 1015.3 1014.2 0.0
17/06:30pm 31.8 25.6 -3.5 10 16.3 S 20 26 11 14 1014.7 1013.7 0.0
17/06:00pm 32.9 26.9 -2.7 10 16.7 SSE 19 26 10 14 1014.4 1013.4 0.0
17/05:30pm 33.6 27.9 -3.6 9 17.3 S 17 22 9 12 1014.0 1013.0 0.0
17/05:00pm 34.1 28.1 -3.2 9 17.6 SSE 19 30 10 16 1013.8 1012.8 0.0
17/04:30pm 34.7 28.0 -4.4 8 18.1 SE 22 30 12 16 1013.8 1012.8 0.0
17/04:00pm 33.9 29.0 -3.4 9 17.5 ESE 13 20 7 11 1013.8 1012.8 0.0
17/03:30pm 34.4 27.8 -3.0 9 17.7 S 22 33 12 18 1013.9 1012.9 0.0
17/03:00pm 34.6 27.9 -4.4 8 18.1 SSE 22 33 12 18 1014.0 1013.0 0.0
17/02:30pm 34.7 28.4 -4.4 8 18.1 S 20 35 11 19 1014.4 1013.4 0.0
17/02:00pm 34.0 28.7 -3.3 9 17.5 SSW 15 28 8 15 1014.7 1013.7 0.0
17/01:30pm 34.6 30.0 -4.4 8 18.1 E 11 17 6 9 1015.2 1014.1 0.0
17/01:00pm 35.0 28.9 -2.6 9 18.0 SSE 20 26 11 14 1015.5 1014.4 0.0
17/12:30pm 33.9 30.1 -3.4 9 17.5 ESE 7 15 4 8 1016.0 1014.9 0.0
17/12:00pm 33.6 30.0 -3.6 9 17.3 NE 6 13 3 7 1016.3 1015.2 0.0
17/11:30am 33.2 28.4 -2.5 10 16.9 E 13 19 7 10 1016.6 1015.5 0.0
17/11:00am 32.4 26.4 -3.1 10 16.5 ENE 19 26 10 14 1017.1 1016.0 0.0
17/10:30am 31.6 25.0 -3.7 10 16.2 E 22 30 12 16 1017.5 1016.5 0.0
17/10:00am 30.7 23.7 -3.1 11 15.5 E 24 32 13 17 1017.7 1016.7 0.0
17/09:30am 28.9 21.4 -4.5 11 14.8 E 26 35 14 19 1017.6 1016.6 0.0
17/09:00am 27.5 20.4 -4.4 12 14.0 E 24 35 13 19 1017.6 1016.6 0.0
17/08:30am 25.7 18.3 -3.8 14 12.9 ESE 26 35 14 19 1017.5 1016.5 0.0
17/08:00am 22.9 17.7 -2.6 18 11.1 ESE 15 26 8 14 1017.1 1016.0 0.0
17/07:30am 19.9 15.9 -2.4 22 9.5 ESE 9 13 5 7 1016.9 1015.8 0.0
17/07:00am 16.9 13.2 -3.2 25 8.2 SE 7 9 4 5 1016.6 1015.5 0.0
17/06:30am 15.4 11.7 -3.0 28 7.4 S 7 11 4 6 1016.2 1015.1 0.0
17/06:00am 15.2 11.7 -3.2 28 7.3 S 6 9 3 5 1015.9 1014.8 0.0
17/05:30am 15.2 11.5 -3.2 28 7.4 S 7 11 4 6 1015.4 1014.3 0.0
17/05:00am 16.3 12.5 -3.7 25 8.0 S 7 9 4 5 1015.0 1014.0 0.0
17/04:30am 17.5 13.4 -3.3 24 8.5 S 9 11 5 6 1014.8 1013.8 0.0
17/04:00am 18.5 13.7 -2.4 24 8.8 SSE 13 17 7 9 1014.7 1013.7 0.0
17/03:30am 20.1 15.9 -3.5 20 9.8 E 9 13 5 7 1014.5 1013.5 0.0
17/03:00am 19.8 17.2 -1.9 23 9.3 ESE 2 6 1 3 1015.0 1014.0 0.0
17/02:30am 21.0 17.3 -2.8 20 10.2 E 7 11 4 6 1015.3 1014.2 0.0
17/02:00am 20.5 17.1 -1.9 22 9.7 ESE 6 9 3 5 1015.4 1014.3 0.0
17/01:30am 21.2 17.9 -1.3 22 9.9 S 6 6 3 3 1015.5 1014.4 0.0
17/01:00am 21.9 18.4 -2.7 19 10.6 SE 6 7 3 4 1015.7 1014.6 0.0
17/12:30am 22.7 19.2 -2.8 18 11.0 SSE 6 7 3 4 1015.8 1014.7 0.0
17/12:00am 24.0 19.0 -4.2 15 12.0 SE 13 17 7 9 1015.8 1014.7 0.0
 
Date/Time
EST
Temp
°C
App
Temp
°C
Dew
Point
Rel
Hum
%
Delta-T
°C
Wind Press
QNH
hPa
Press
MSL
hPa
Rain
since 9 am
mm
Dir
 
Spd
km/h
Gust
km/h
Spd
kts
Gust
kts
16/11:30pm 24.7 19.8 -3.6 15 12.3 SE 13 17 7 9 1015.7 1014.6 0.0
16/11:00pm 26.1 20.8 -3.5 14 13.0 SE 15 19 8 10 1015.6 1014.5 0.0
16/10:30pm 26.5 21.3 -3.1 14 13.2 SSE 15 20 8 11 1015.4 1014.3 0.0
16/10:00pm 26.1 20.8 -3.5 14 13.0 SSE 15 19 8 10 1015.4 1014.3 0.0
16/09:30pm 25.3 20.4 -3.2 15 12.5 SSE 13 15 7 8 1015.3 1014.2 0.0
16/09:00pm 26.2 21.3 -3.4 14 13.1 SSE 13 15 7 8 1014.8 1013.8 0.0
16/08:30pm 26.4 21.9 -3.2 14 13.1 SSE 11 13 6 7 1014.5 1013.5 0.0
16/08:00pm 26.8 22.3 -2.9 14 13.3 SSE 11 13 6 7 1014.2 1013.2 0.0
16/07:30pm 28.0 23.5 -3.0 13 14.0 S 11 13 6 7 1013.7 1012.7 0.0
16/07:00pm 29.1 24.6 -3.2 12 14.6 SSE 11 13 6 7 1013.3 1012.2 0.0
16/06:30pm 31.4 27.0 -2.6 11 15.9 S 11 19 6 10 1013.1 1012.0 0.0
16/06:00pm 32.6 27.5 -1.7 11 16.4 S 15 22 8 12 1013.0 1011.9 0.0
16/05:30pm 33.2 27.3 -2.5 10 16.9 ESE 19 24 10 13 1012.9 1011.8 0.0
16/05:00pm 34.0 27.6 -1.9 10 17.3 S 22 30 12 16 1012.8 1011.7 0.0
16/04:30pm 33.8 27.9 -0.7 11 16.9 ESE 20 28 11 15 1012.6 1011.5 0.0
16/04:00pm 34.0 29.5 -0.6 11 17.0 S 13 20 7 11 1012.6 1011.5 0.0
16/03:30pm 34.2 29.7 -0.4 11 17.1 S 13 20 7 11 1012.8 1011.7 0.0
16/03:00pm 34.1 30.7 -0.5 11 17.0 SSW 7 20 4 11 1012.9 1011.8 0.0
16/02:30pm 34.1 30.9 -0.5 11 17.0 ESE 6 13 3 7 1013.4 1012.3 0.0
16/02:00pm 34.1 29.8 0.7 12 16.8 ESE 13 19 7 10 1013.7 1012.7 0.0

Other Formats:

Comma delimited format used in spreadsheet applications
http://www.bom.gov.au/fwo/IDQ60801/IDQ60801.94255.axf

JavaScript Object Notation format (JSON) in row-major order
http://www.bom.gov.au/fwo/IDQ60801/IDQ60801.94255.json